createdAt,value
2018-06-23T00:00:02.164Z,17.10
2018-06-23T00:02:29.943Z,17.10
2018-06-23T00:04:57.666Z,16.90
2018-06-23T00:07:25.472Z,17.10
2018-06-23T00:09:53.831Z,17.10
2018-06-23T00:12:21.582Z,17.00
2018-06-23T00:14:49.348Z,16.90
2018-06-23T00:17:17.121Z,16.80
2018-06-23T00:19:44.884Z,16.80
2018-06-23T00:22:12.637Z,16.80
2018-06-23T00:24:40.395Z,17.00
2018-06-23T00:27:08.113Z,16.50
2018-06-23T00:29:35.831Z,16.40
2018-06-23T00:32:03.586Z,16.80
2018-06-23T00:34:31.283Z,17.00
2018-06-23T00:36:59.001Z,17.20
2018-06-23T00:39:26.715Z,17.20
2018-06-23T00:41:54.429Z,17.00
2018-06-23T00:44:23.289Z,17.00
2018-06-23T00:46:51.019Z,17.20
2018-06-23T00:49:18.771Z,16.90
2018-06-23T00:51:46.483Z,16.40
2018-06-23T00:54:14.211Z,16.00
2018-06-23T00:56:41.955Z,16.30
2018-06-23T00:59:42.561Z,16.30
2018-06-23T01:02:10.320Z,16.30
2018-06-23T01:04:38.299Z,16.20
2018-06-23T01:07:07.520Z,16.20
2018-06-23T01:09:35.323Z,16.20
2018-06-23T01:14:31.230Z,16.10
2018-06-23T01:16:58.992Z,16.30
2018-06-23T01:19:26.714Z,16.50
2018-06-23T01:21:54.833Z,16.70
2018-06-23T01:24:22.528Z,16.50
2018-06-23T01:29:18.018Z,17.10
2018-06-23T01:31:45.922Z,17.30
2018-06-23T01:34:13.642Z,17.50
2018-06-23T01:36:41.558Z,17.40
2018-06-23T01:39:10.967Z,17.40
2018-06-23T01:41:38.931Z,17.80
2018-06-23T01:44:06.800Z,17.70
2018-06-23T01:46:34.545Z,17.60
2018-06-23T01:49:02.476Z,17.60
2018-06-23T01:51:30.175Z,17.80
2018-06-23T01:53:58.063Z,17.80
2018-06-23T01:56:25.828Z,17.90
2018-06-23T01:58:53.577Z,17.90
2018-06-23T02:03:49.021Z,17.60
2018-06-23T02:06:17.525Z,17.50
2018-06-23T02:08:45.328Z,17.50
2018-06-23T02:11:13.081Z,17.50
2018-06-23T02:13:40.762Z,17.80
2018-06-23T02:16:14.187Z,17.90
2018-06-23T02:18:47.760Z,18.00
2018-06-23T02:21:21.283Z,18.00
2018-06-23T02:26:28.449Z,17.80
2018-06-23T02:31:04.502Z,18.40
2018-06-23T02:33:37.795Z,18.20
2018-06-23T02:36:05.520Z,17.80
2018-06-23T02:38:33.235Z,17.80
2018-06-23T02:41:00.946Z,17.80
2018-06-23T02:43:28.653Z,17.90
2018-06-23T02:45:56.351Z,18.50
2018-06-23T02:48:25.051Z,18.20
2018-06-23T02:50:52.737Z,18.10
2018-06-23T02:53:20.432Z,18.60
2018-06-23T02:55:48.170Z,18.60
2018-06-23T02:58:16.008Z,18.80
2018-06-23T03:00:44.523Z,19.00
2018-06-23T03:05:52.561Z,18.30
2018-06-23T03:08:20.255Z,18.70
2018-06-23T03:10:47.983Z,18.80
2018-06-23T03:13:15.747Z,18.90
2018-06-23T03:15:43.458Z,19.90
2018-06-23T03:18:11.633Z,18.80
2018-06-23T03:20:39.537Z,19.40
2018-06-23T03:23:07.255Z,19.00
2018-06-23T03:25:35.487Z,19.00
2018-06-23T03:28:03.205Z,19.30
2018-06-23T03:30:30.898Z,19.40
2018-06-23T03:32:58.681Z,19.30
2018-06-23T03:35:26.398Z,19.00
2018-06-23T03:37:54.418Z,19.00
2018-06-23T03:40:22.130Z,18.90
2018-06-23T03:42:50.377Z,19.20
2018-06-23T03:45:18.116Z,19.30
2018-06-23T03:47:45.833Z,19.50
2018-06-23T03:50:13.610Z,19.20
2018-06-23T03:52:41.326Z,19.10
2018-06-23T03:55:09.047Z,19.00
2018-06-23T03:57:36.735Z,19.10
2018-06-23T04:00:04.776Z,18.70
2018-06-23T04:02:32.483Z,18.90
2018-06-23T04:05:00.241Z,19.20
2018-06-23T04:07:27.964Z,19.40
2018-06-23T04:09:55.666Z,19.60
2018-06-23T04:12:23.357Z,19.60
2018-06-23T04:14:51.070Z,19.40
2018-06-23T04:17:18.742Z,19.40
2018-06-23T04:19:46.455Z,19.50
2018-06-23T04:22:14.667Z,19.40
2018-06-23T04:24:42.382Z,19.60
2018-06-23T04:27:10.089Z,19.80
2018-06-23T04:29:37.799Z,19.00
2018-06-23T04:32:05.899Z,19.20
2018-06-23T04:34:33.622Z,19.20
2018-06-23T04:37:01.363Z,19.40
2018-06-23T04:39:29.139Z,19.30
2018-06-23T04:41:56.877Z,19.50
2018-06-23T04:44:24.594Z,19.40
2018-06-23T04:46:52.327Z,19.80
2018-06-23T04:51:47.740Z,20.10
2018-06-23T04:54:15.479Z,19.60
2018-06-23T04:56:43.183Z,19.80
2018-06-23T04:59:10.890Z,19.30
2018-06-23T05:01:38.545Z,19.40
2018-06-23T05:04:06.289Z,19.40
2018-06-23T05:06:34.013Z,19.20
2018-06-23T05:09:01.711Z,19.40
2018-06-23T05:11:29.423Z,19.00
2018-06-23T05:13:57.330Z,19.40
2018-06-23T05:16:25.034Z,19.40
2018-06-23T05:18:53.213Z,19.70
2018-06-23T05:21:20.991Z,19.70
2018-06-23T05:23:48.727Z,19.20
2018-06-23T05:26:16.449Z,18.70
2018-06-23T05:28:44.142Z,18.90
2018-06-23T05:31:11.867Z,19.20
2018-06-23T05:33:39.630Z,18.90
2018-06-23T05:36:07.679Z,19.00
2018-06-23T05:38:35.445Z,18.40
2018-06-23T05:41:03.173Z,18.10
2018-06-23T05:43:31.010Z,18.70
2018-06-23T05:45:58.828Z,18.80
2018-06-23T05:48:27.925Z,19.30
2018-06-23T05:50:55.862Z,19.90
2018-06-23T05:53:23.792Z,19.00
2018-06-23T05:58:19.580Z,18.90
2018-06-23T06:00:47.570Z,18.40
2018-06-23T06:03:15.673Z,18.60
2018-06-23T06:05:43.411Z,18.90
2018-06-23T06:08:11.125Z,18.70
2018-06-23T06:10:38.885Z,18.50
2018-06-23T06:13:06.610Z,18.90
2018-06-23T06:15:34.316Z,19.20
2018-06-23T06:18:02.057Z,18.90
2018-06-23T06:20:29.815Z,18.80
2018-06-23T06:22:57.685Z,19.30
2018-06-23T06:25:25.408Z,19.80
2018-06-23T06:27:53.123Z,19.80
2018-06-23T06:32:48.935Z,19.90
2018-06-23T06:35:16.695Z,20.00
2018-06-23T06:37:44.399Z,20.50
2018-06-23T06:42:39.849Z,20.80
2018-06-23T06:45:07.603Z,20.60
2018-06-23T06:50:03.789Z,19.90
2018-06-23T06:52:31.532Z,19.80
2018-06-23T06:54:59.263Z,19.50
2018-06-23T06:57:26.998Z,19.90
2018-06-23T06:59:55.299Z,19.70
2018-06-23T07:02:23.017Z,19.70
2018-06-23T07:04:50.727Z,19.70
2018-06-23T07:07:18.435Z,19.50
2018-06-23T07:09:46.155Z,18.80
2018-06-23T07:12:14.082Z,18.30
2018-06-23T07:14:41.829Z,17.90
2018-06-23T07:17:09.555Z,18.20
2018-06-23T07:19:37.371Z,18.20
2018-06-23T07:22:05.087Z,18.30
2018-06-23T07:24:32.933Z,18.80
2018-06-23T07:27:00.743Z,19.40
2018-06-23T07:29:28.370Z,18.90
2018-06-23T07:31:56.143Z,19.00
2018-06-23T07:34:23.898Z,19.30
2018-06-23T07:36:51.579Z,19.80
2018-06-23T07:39:19.274Z,20.00
2018-06-23T07:41:47.318Z,19.70
2018-06-23T07:44:15.078Z,19.60
2018-06-23T07:46:42.893Z,19.50
2018-06-23T07:49:10.511Z,19.90
2018-06-23T07:51:38.201Z,19.90
2018-06-23T07:54:05.926Z,20.20
2018-06-23T07:56:33.684Z,20.60
2018-06-23T07:59:01.420Z,20.90
2018-06-23T08:01:29.188Z,20.70
2018-06-23T08:03:56.863Z,21.10
2018-06-23T08:06:24.608Z,21.20
2018-06-23T08:08:52.337Z,20.80
2018-06-23T08:11:20.038Z,21.10
2018-06-23T08:16:15.779Z,21.40
2018-06-23T08:18:43.535Z,21.30
2018-06-23T08:21:11.239Z,21.20
2018-06-23T08:23:38.960Z,21.00
2018-06-23T08:26:06.938Z,20.90
2018-06-23T08:31:03.571Z,20.70
2018-06-23T08:33:31.512Z,20.70
2018-06-23T08:35:59.313Z,20.70
2018-06-23T08:38:27.086Z,21.00
2018-06-23T08:40:54.833Z,21.00
2018-06-23T08:43:22.568Z,21.10
2018-06-23T08:45:51.125Z,21.20
2018-06-23T08:48:18.911Z,21.20
2018-06-23T08:50:46.597Z,20.90
2018-06-23T08:53:14.454Z,20.90
2018-06-23T08:55:42.211Z,21.10
2018-06-23T08:58:09.968Z,21.10
2018-06-23T09:00:37.671Z,21.10
2018-06-23T09:05:33.275Z,21.30
2018-06-23T09:08:04.099Z,21.70
2018-06-23T09:10:31.847Z,21.60
2018-06-23T09:12:59.568Z,21.40
2018-06-23T09:15:27.346Z,21.40
2018-06-23T09:20:22.826Z,21.30
2018-06-23T09:22:50.533Z,21.40
2018-06-23T09:25:18.284Z,21.50
2018-06-23T09:27:45.981Z,21.60
2018-06-23T09:32:41.560Z,21.00
2018-06-23T09:35:09.299Z,20.70
2018-06-23T09:40:05.404Z,20.30
2018-06-23T09:42:33.161Z,20.40
2018-06-23T09:45:00.861Z,19.90
2018-06-23T09:47:28.597Z,19.90
2018-06-23T09:49:56.329Z,20.00
2018-06-23T09:52:24.058Z,20.00
2018-06-23T09:54:51.814Z,20.60
2018-06-23T09:57:19.600Z,20.90
2018-06-23T09:59:47.322Z,21.80
2018-06-23T10:02:15.088Z,21.60
2018-06-23T10:04:42.841Z,21.50
2018-06-23T10:07:10.600Z,21.40
2018-06-23T10:09:38.358Z,21.50
2018-06-23T10:12:06.819Z,22.00
2018-06-23T10:14:34.642Z,22.20
2018-06-23T10:17:02.441Z,22.50
2018-06-23T10:19:30.194Z,22.70
2018-06-23T10:21:57.962Z,22.50
2018-06-23T10:24:25.738Z,22.30
2018-06-23T10:26:53.541Z,22.60
2018-06-23T10:29:21.338Z,22.40
2018-06-23T10:34:17.149Z,23.10
2018-06-23T10:36:44.914Z,23.00
2018-06-23T10:39:12.661Z,22.30
2018-06-23T10:41:40.664Z,21.40
2018-06-23T10:44:08.674Z,21.60
2018-06-23T10:46:36.435Z,21.40
2018-06-23T10:49:04.591Z,21.30
2018-06-23T10:51:32.479Z,21.60
2018-06-23T10:54:00.268Z,21.20
2018-06-23T10:56:28.132Z,21.00
2018-06-23T10:58:56.290Z,21.20
2018-06-23T11:01:24.016Z,21.10
2018-06-23T11:03:51.783Z,20.90
2018-06-23T11:06:19.485Z,21.10
2018-06-23T11:08:47.207Z,21.60
2018-06-23T11:11:15.019Z,21.50
2018-06-23T11:13:42.747Z,21.90
2018-06-23T11:16:10.480Z,21.70
2018-06-23T11:18:38.211Z,21.70
2018-06-23T11:21:06.185Z,21.80
2018-06-23T11:23:33.903Z,22.30
2018-06-23T11:26:01.598Z,22.70
2018-06-23T11:28:29.299Z,22.80
2018-06-23T11:30:57.034Z,23.40
2018-06-23T11:33:24.741Z,23.70
2018-06-23T11:35:53.106Z,23.30
2018-06-23T11:38:20.904Z,22.80
2018-06-23T11:40:48.643Z,22.80
2018-06-23T11:43:16.429Z,23.50
2018-06-23T11:45:44.176Z,24.30
2018-06-23T11:48:12.906Z,24.40
2018-06-23T11:50:40.659Z,25.00
2018-06-23T11:53:08.420Z,24.50
2018-06-23T11:55:36.145Z,25.00
2018-06-23T11:58:03.874Z,24.60
2018-06-23T12:00:31.618Z,24.40
2018-06-23T12:02:59.436Z,24.30
2018-06-23T12:05:27.886Z,25.00
2018-06-23T12:07:55.608Z,24.60
2018-06-23T12:10:24.140Z,24.50
2018-06-23T12:12:51.853Z,24.70
2018-06-23T12:15:19.625Z,25.30
2018-06-23T12:17:47.335Z,25.10
2018-06-23T12:20:15.087Z,25.00
2018-06-23T12:22:42.785Z,24.60
2018-06-23T12:25:10.485Z,24.80
2018-06-23T12:27:38.213Z,24.40
2018-06-23T12:30:06.255Z,24.30
2018-06-23T12:32:33.979Z,24.60
2018-06-23T12:35:01.702Z,25.20
2018-06-23T12:37:29.492Z,25.10
2018-06-23T12:39:57.605Z,24.70
2018-06-23T12:42:25.522Z,25.30
2018-06-23T12:44:53.213Z,25.60
2018-06-23T12:47:21.137Z,25.00
2018-06-23T12:49:48.911Z,25.40
2018-06-23T12:52:16.649Z,25.20
2018-06-23T12:54:44.327Z,25.60
2018-06-23T12:57:12.079Z,26.00
2018-06-23T12:59:39.899Z,26.10
2018-06-23T13:02:07.623Z,26.90
2018-06-23T13:04:35.380Z,26.80
2018-06-23T13:09:30.853Z,26.80
2018-06-23T13:11:58.595Z,26.60
2018-06-23T13:14:26.317Z,25.10
2018-06-23T13:16:54.108Z,27.30
2018-06-23T13:19:21.828Z,28.00
2018-06-23T13:21:49.657Z,27.90
2018-06-23T13:24:17.354Z,28.40
2018-06-23T13:26:45.094Z,28.50
2018-06-23T13:29:12.912Z,28.70
2018-06-23T13:31:40.723Z,27.10
2018-06-23T13:34:08.495Z,25.90
2018-06-23T13:36:36.250Z,26.30
2018-06-23T13:41:34.307Z,27.20
2018-06-23T13:44:02.136Z,26.80
2018-06-23T13:46:30.026Z,25.90
2018-06-23T13:48:57.750Z,26.10
2018-06-23T13:51:25.454Z,25.50
2018-06-23T13:53:53.212Z,25.00
2018-06-23T13:56:21.447Z,25.10
2018-06-23T13:58:49.312Z,25.50
2018-06-23T14:01:17.139Z,26.10
2018-06-23T14:03:44.969Z,26.50
2018-06-23T14:06:12.666Z,26.90
2018-06-23T14:08:40.486Z,27.10
2018-06-23T14:11:08.213Z,27.20
2018-06-23T14:16:03.931Z,27.90
2018-06-23T14:18:31.644Z,26.90
2018-06-23T14:20:59.685Z,27.40
2018-06-23T14:23:27.395Z,27.60
2018-06-23T14:25:55.138Z,28.00
2018-06-23T14:30:50.685Z,27.80
2018-06-23T14:33:18.467Z,28.60
2018-06-23T14:35:46.171Z,28.30
2018-06-23T14:38:13.915Z,28.40
2018-06-23T14:40:41.650Z,28.40
2018-06-23T14:43:09.422Z,28.30
2018-06-23T14:45:37.292Z,28.00
2018-06-23T14:48:05.090Z,28.70
2018-06-23T14:50:32.963Z,28.70
2018-06-23T14:53:00.735Z,29.00
2018-06-23T14:55:28.499Z,29.00
2018-06-23T14:57:56.344Z,28.10
2018-06-23T15:00:24.979Z,28.20
2018-06-23T15:02:52.815Z,27.40
2018-06-23T15:05:20.627Z,27.20
2018-06-23T15:07:48.416Z,27.30
2018-06-23T15:10:33.494Z,27.30
2018-06-23T15:13:15.159Z,27.60
2018-06-23T15:18:10.890Z,28.40
2018-06-23T15:20:39.227Z,28.20
2018-06-23T15:23:06.937Z,28.00
2018-06-23T15:25:34.793Z,28.50
2018-06-23T15:28:02.575Z,28.90
2018-06-23T15:30:30.472Z,29.40
2018-06-23T15:32:58.325Z,30.10
2018-06-23T15:35:26.071Z,29.70
2018-06-23T15:37:53.933Z,29.10
2018-06-23T15:40:21.840Z,28.50
2018-06-23T15:42:50.733Z,28.90
2018-06-23T15:45:18.520Z,29.20
2018-06-23T15:47:46.291Z,30.20
2018-06-23T15:50:14.193Z,29.80
2018-06-23T15:52:42.055Z,29.30
2018-06-23T15:57:37.746Z,28.10
2018-06-23T16:00:05.578Z,28.70
2018-06-23T16:02:33.380Z,29.40
2018-06-23T16:05:01.291Z,30.10
2018-06-23T16:12:24.703Z,29.20
2018-06-23T16:14:52.811Z,28.90
2018-06-23T16:17:20.600Z,29.50
2018-06-23T16:19:48.470Z,29.70
2018-06-23T16:22:16.619Z,30.20
2018-06-23T16:24:44.430Z,30.40
2018-06-23T16:27:12.464Z,30.50
2018-06-23T16:29:40.228Z,31.10
2018-06-23T16:32:07.957Z,30.80
2018-06-23T16:34:35.812Z,30.80
2018-06-23T16:37:03.479Z,31.20
2018-06-23T16:39:31.214Z,30.60
2018-06-23T16:41:59.189Z,30.20
2018-06-23T16:44:26.999Z,29.40
2018-06-23T16:46:54.962Z,29.00
2018-06-23T16:49:22.708Z,29.50
2018-06-23T16:51:50.418Z,29.20
2018-06-23T16:54:18.128Z,28.60
2018-06-23T16:56:45.850Z,28.10
2018-06-23T16:59:13.663Z,27.90
2018-06-23T17:04:09.273Z,27.90
2018-06-23T17:06:36.929Z,28.10
2018-06-23T17:09:07.671Z,29.00
2018-06-23T17:11:35.420Z,29.80
2018-06-23T17:14:03.192Z,30.30
2018-06-23T17:16:30.927Z,29.70
2018-06-23T17:18:58.718Z,29.80
2018-06-23T17:21:26.426Z,29.80
2018-06-23T17:23:54.233Z,29.80
2018-06-23T17:26:22.922Z,29.90
2018-06-23T17:28:50.738Z,30.10
2018-06-23T17:31:18.497Z,30.50
2018-06-23T17:33:46.375Z,30.90
2018-06-23T17:36:14.956Z,30.30
2018-06-23T17:38:42.705Z,30.10
2018-06-23T17:41:10.423Z,29.50
2018-06-23T17:46:06.099Z,28.80
2018-06-23T17:48:33.930Z,28.70
2018-06-23T17:51:01.748Z,28.70
2018-06-23T17:53:29.553Z,28.20
2018-06-23T17:55:57.426Z,28.40
2018-06-23T17:58:25.243Z,28.50
2018-06-23T18:00:53.002Z,28.70
2018-06-23T18:05:50.186Z,27.10
2018-06-23T18:08:19.279Z,27.00
2018-06-23T18:13:18.349Z,27.10
2018-06-23T18:18:16.278Z,26.80
2018-06-23T18:20:44.116Z,27.00
2018-06-23T18:23:11.827Z,27.20
2018-06-23T18:25:39.953Z,27.30
2018-06-23T18:28:07.678Z,27.30
2018-06-23T18:30:36.201Z,27.00
2018-06-23T18:33:04.054Z,26.60
2018-06-23T18:35:31.894Z,26.10
2018-06-23T18:40:27.448Z,25.60
2018-06-23T18:42:55.239Z,26.00
2018-06-23T18:45:23.017Z,25.70
2018-06-23T18:47:50.743Z,25.40
2018-06-23T18:50:18.487Z,25.40
2018-06-23T18:52:47.288Z,25.20
2018-06-23T18:55:15.011Z,25.00
2018-06-23T18:57:42.759Z,25.00
2018-06-23T19:00:10.542Z,25.50
2018-06-23T19:02:38.425Z,25.30
2018-06-23T19:05:06.133Z,25.70
2018-06-23T19:07:33.961Z,25.60
2018-06-23T19:10:01.751Z,25.10
2018-06-23T19:12:29.574Z,24.90
2018-06-23T19:14:57.942Z,25.00
2018-06-23T19:17:25.779Z,24.60
2018-06-23T19:19:53.651Z,24.20
2018-06-23T19:22:21.741Z,24.10
2018-06-23T19:24:49.558Z,23.80
2018-06-23T19:27:17.351Z,24.00
2018-06-23T19:29:45.323Z,24.10
2018-06-23T19:32:13.104Z,24.00
2018-06-23T19:34:41.579Z,23.90
2018-06-23T19:37:09.646Z,23.70
2018-06-23T19:39:37.438Z,23.70
2018-06-23T19:42:05.165Z,23.70
2018-06-23T19:44:33.178Z,23.60
2018-06-23T19:47:00.885Z,23.60
2018-06-23T19:49:28.805Z,23.60
2018-06-23T19:51:56.822Z,23.80
2018-06-23T19:54:25.421Z,23.90
2018-06-23T19:56:53.489Z,24.00
2018-06-23T20:01:49.034Z,23.80
2018-06-23T20:04:16.745Z,23.80
2018-06-23T20:06:48.100Z,23.70
2018-06-23T20:09:15.825Z,24.00
2018-06-23T20:11:43.643Z,24.10
2018-06-23T20:14:11.458Z,24.20
2018-06-23T20:19:07.109Z,24.40
2018-06-23T20:21:34.863Z,24.50
2018-06-23T20:24:02.633Z,24.20
2018-06-23T20:26:32.048Z,24.20
2018-06-23T20:29:03.032Z,24.10
2018-06-23T20:31:30.774Z,24.00
2018-06-23T20:33:58.527Z,23.90
2018-06-23T20:36:26.265Z,23.90
2018-06-23T20:38:53.968Z,23.90
2018-06-23T20:41:21.699Z,24.00
2018-06-23T20:43:49.395Z,24.00
2018-06-23T20:46:17.138Z,24.00
2018-06-23T20:48:45.594Z,23.90
2018-06-23T20:51:14.123Z,23.90
2018-06-23T20:53:43.215Z,23.80
2018-06-23T20:56:11.020Z,23.50
2018-06-23T20:58:39.771Z,23.60
2018-06-23T21:01:07.561Z,23.70
2018-06-23T21:03:35.280Z,23.70
2018-06-23T21:06:03.061Z,23.60
2018-06-23T21:08:31.065Z,23.50
2018-06-23T21:10:59.091Z,23.70
2018-06-23T21:13:26.814Z,23.90
2018-06-23T21:18:22.374Z,23.60
2018-06-23T21:20:50.069Z,23.70
2018-06-23T21:23:17.797Z,23.60
2018-06-23T21:25:45.540Z,23.60
2018-06-23T21:28:14.272Z,23.90
2018-06-23T21:30:42.184Z,24.10
2018-06-23T21:33:09.871Z,24.20
2018-06-23T21:35:40.679Z,24.20
2018-06-23T21:38:08.899Z,24.20
2018-06-23T21:40:36.935Z,24.20
2018-06-23T21:43:04.739Z,24.30
2018-06-23T21:45:32.473Z,24.40
2018-06-23T21:48:00.177Z,24.40
2018-06-23T21:50:28.331Z,24.40
2018-06-23T21:52:56.919Z,24.40
2018-06-23T21:55:24.854Z,24.50
2018-06-23T21:57:53.496Z,24.50
2018-06-23T22:00:43.239Z,24.30
2018-06-23T22:03:12.032Z,24.40
2018-06-23T22:05:39.847Z,24.30
2018-06-23T22:08:08.930Z,24.30
2018-06-23T22:10:37.548Z,24.10
2018-06-23T22:13:05.491Z,24.10
2018-06-23T22:18:01.032Z,24.30
2018-06-23T22:20:28.773Z,24.30
2018-06-23T22:22:56.559Z,24.00
2018-06-23T22:25:24.308Z,23.70
2018-06-23T22:27:52.183Z,23.90
2018-06-23T22:30:20.868Z,23.90
2018-06-23T22:32:48.633Z,23.80
2018-06-23T22:35:16.332Z,23.90
2018-06-23T22:37:44.072Z,24.00
2018-06-23T22:40:11.854Z,23.90
2018-06-23T22:42:39.807Z,23.90
2018-06-23T22:45:07.770Z,23.80
2018-06-23T22:47:35.506Z,23.70
2018-06-23T22:50:03.591Z,23.70
2018-06-23T22:52:32.469Z,23.60
2018-06-23T22:57:27.922Z,23.40
2018-06-23T22:59:55.661Z,23.20
2018-06-23T23:02:23.392Z,23.10
2018-06-23T23:04:51.143Z,22.90
2018-06-23T23:07:18.905Z,22.80
2018-06-23T23:09:46.678Z,22.80
2018-06-23T23:12:14.496Z,22.90
2018-06-23T23:14:42.175Z,22.70
2018-06-23T23:17:10.291Z,22.50
2018-06-23T23:19:37.984Z,22.40
2018-06-23T23:22:05.739Z,22.50
2018-06-23T23:24:33.450Z,22.60
2018-06-23T23:27:01.131Z,22.70
2018-06-23T23:29:28.874Z,22.80
2018-06-23T23:31:56.594Z,22.70
2018-06-23T23:34:24.329Z,22.80
2018-06-23T23:36:52.887Z,23.60
2018-06-23T23:39:20.650Z,22.90
2018-06-23T23:41:48.343Z,23.10
2018-06-23T23:44:16.055Z,23.00
2018-06-23T23:46:43.769Z,22.90
2018-06-23T23:49:11.476Z,23.10
2018-06-23T23:51:39.163Z,23.20
2018-06-23T23:54:06.919Z,23.10
2018-06-23T23:56:34.681Z,23.00
2018-06-23T23:59:02.493Z,22.90
